Martha's Vineyard, Massachusetts
Current Conditions -  °F | °C
As of 1:53 AM on Wednesday 22 Oct 2014 (Local Time) from KMVY Reporting Station
Broken Clouds Broken Clouds  
Wind Chill: 54°   Ceiling: 1000
Heat Index: 54°   Visibility: 10mi
Dew Point: 54°   Wind: 5mph
Humidity: 100%   Direction: 30°NNE
Pressure: 29.92"   Gusts: NA
Location:  41.39°N, 70.61°W
Report Text: KMVY 220553Z AUTO 03004KT 10SM BKN010 12/12 A2992 RMK AO2 CIG 008V012 SLP132 60000 T01220122 10156 20089 58006
Loading
Personal Weather Stations






























Interactive Weather Map
Tropical Storm Tracking
New forecast layout! Learn more

10-Day Weather Forecast

Advertisements
Track Severe Weather on mobile